sensor_id;sensor_type;location;lat;lon;timestamp;pressure;altitude;pressure_sealevel;temperature;humidity
48644;BME280;34928;37.302;-121.984;2023-02-20T00:05:52;101040.0;;;26.95;17.29
48644;BME280;34928;37.302;-121.984;2023-02-20T00:15:57;101043.0;;;26.77;17.21
48644;BME280;34928;37.302;-121.984;2023-02-20T00:26:02;101049.0;;;26.94;17.17
48644;BME280;34928;37.302;-121.984;2023-02-20T00:36:12;101052.0;;;26.78;17.24
48644;BME280;34928;37.302;-121.984;2023-02-20T00:46:18;101064.0;;;26.74;17.28
48644;BME280;34928;37.302;-121.984;2023-02-20T00:56:22;101073.0;;;26.71;17.20
48644;BME280;34928;37.302;-121.984;2023-02-20T01:06:27;101074.0;;;26.96;17.15
48644;BME280;34928;37.302;-121.984;2023-02-20T01:16:32;101089.0;;;26.91;17.36
48644;BME280;34928;37.302;-121.984;2023-02-20T01:26:39;101073.0;;;26.92;17.36
48644;BME280;34928;37.302;-121.984;2023-02-20T01:36:46;101075.0;;;26.78;17.10
48644;BME280;34928;37.302;-121.984;2023-02-20T01:46:54;101070.0;;;26.85;17.21
48644;BME280;34928;37.302;-121.984;2023-02-20T01:57:00;101078.0;;;26.73;16.34
48644;BME280;34928;37.302;-121.984;2023-02-20T02:07:08;101084.0;;;27.18;16.18
48644;BME280;34928;37.302;-121.984;2023-02-20T02:17:24;101112.0;;;26.66;16.78
48644;BME280;34928;37.302;-121.984;2023-02-20T02:38:01;101139.0;;;27.29;17.40
48644;BME280;34928;37.302;-121.984;2023-02-20T02:48:13;101149.0;;;27.24;17.25
48644;BME280;34928;37.302;-121.984;2023-02-20T02:58:28;101170.0;;;26.89;17.21
48644;BME280;34928;37.302;-121.984;2023-02-20T03:08:36;101189.0;;;27.20;17.61
48644;BME280;34928;37.302;-121.984;2023-02-20T03:18:43;101183.0;;;27.16;17.83
48644;BME280;34928;37.302;-121.984;2023-02-20T03:28:52;101194.0;;;27.19;18.79
48644;BME280;34928;37.302;-121.984;2023-02-20T03:39:01;101194.0;;;27.22;18.93
48644;BME280;34928;37.302;-121.984;2023-02-20T03:49:10;101212.0;;;27.20;19.05
48644;BME280;34928;37.302;-121.984;2023-02-20T03:59:21;101208.0;;;26.93;19.06
48644;BME280;34928;37.302;-121.984;2023-02-20T04:09:30;101218.0;;;27.09;19.21
48644;BME280;34928;37.302;-121.984;2023-02-20T04:19:37;101215.0;;;26.94;19.40
48644;BME280;34928;37.302;-121.984;2023-02-20T04:29:42;101207.0;;;26.91;19.30
48644;BME280;34928;37.302;-121.984;2023-02-20T04:39:47;101212.0;;;26.84;19.19
48644;BME280;34928;37.302;-121.984;2023-02-20T04:49:52;101217.0;;;26.77;17.39
48644;BME280;34928;37.302;-121.984;2023-02-20T04:59:57;101215.0;;;26.68;18.93
48644;BME280;34928;37.302;-121.984;2023-02-20T05:10:02;101218.0;;;26.54;19.08
48644;BME280;34928;37.302;-121.984;2023-02-20T05:20:08;101218.0;;;26.39;19.15
48644;BME280;34928;37.302;-121.984;2023-02-20T05:30:12;101219.0;;;26.81;19.60
48644;BME280;34928;37.302;-121.984;2023-02-20T05:40:17;101225.0;;;26.90;20.17
48644;BME280;34928;37.302;-121.984;2023-02-20T05:50:22;101236.0;;;26.67;19.91
48644;BME280;34928;37.302;-121.984;2023-02-20T06:00:27;101253.0;;;26.47;19.68
48644;BME280;34928;37.302;-121.984;2023-02-20T06:10:33;101285.0;;;26.93;19.30
48644;BME280;34928;37.302;-121.984;2023-02-20T06:20:38;101302.0;;;26.96;19.02
48644;BME280;34928;37.302;-121.984;2023-02-20T06:30:42;101313.0;;;26.92;19.13
48644;BME280;34928;37.302;-121.984;2023-02-20T06:40:48;101326.0;;;26.76;19.10
48644;BME280;34928;37.302;-121.984;2023-02-20T06:50:52;101338.0;;;26.76;19.04
48644;BME280;34928;37.302;-121.984;2023-02-20T06:52:57;101331.0;;;26.42;19.15
48644;BME280;34928;37.302;-121.984;2023-02-20T07:03:02;101324.0;;;26.51;19.25
48644;BME280;34928;37.302;-121.984;2023-02-20T07:13:07;101307.0;;;26.84;19.33
48644;BME280;34928;37.302;-121.984;2023-02-20T07:23:12;101288.0;;;26.60;19.85
48644;BME280;34928;37.302;-121.984;2023-02-20T07:33:18;101287.0;;;26.70;19.22
48644;BME280;34928;37.302;-121.984;2023-02-20T07:43:22;101303.0;;;26.28;19.21
48644;BME280;34928;37.302;-121.984;2023-02-20T07:53:28;101301.0;;;26.46;19.13
48644;BME280;34928;37.302;-121.984;2023-02-20T08:03:32;101311.0;;;26.72;19.04
48644;BME280;34928;37.302;-121.984;2023-02-20T08:13:37;101298.0;;;26.36;19.09
48644;BME280;34928;37.302;-121.984;2023-02-20T08:23:43;101296.0;;;26.31;19.05
48644;BME280;34928;37.302;-121.984;2023-02-20T08:33:48;101272.0;;;26.33;19.12
48644;BME280;34928;37.302;-121.984;2023-02-20T08:43:52;101272.0;;;25.92;19.02
48644;BME280;34928;37.302;-121.984;2023-02-20T08:53:57;101269.0;;;25.91;19.35
48644;BME280;34928;37.302;-121.984;2023-02-20T09:04:02;101281.0;;;25.64;19.56
48644;BME280;34928;37.302;-121.984;2023-02-20T09:14:10;101313.0;;;25.73;19.50
48644;BME280;34928;37.302;-121.984;2023-02-20T09:24:12;101323.0;;;25.31;19.67
48644;BME280;34928;37.302;-121.984;2023-02-20T09:34:17;101337.0;;;25.47;19.45
48644;BME280;34928;37.302;-121.984;2023-02-20T09:44:27;101333.0;;;25.12;19.31
48644;BME280;34928;37.302;-121.984;2023-02-20T09:54:40;101352.0;;;24.88;19.23
48644;BME280;34928;37.302;-121.984;2023-02-20T10:04:49;101342.0;;;25.36;19.11
48644;BME280;34928;37.302;-121.984;2023-02-20T10:15:06;101359.0;;;24.84;19.15
48644;BME280;34928;37.302;-121.984;2023-02-20T10:25:17;101365.0;;;24.86;19.14
48644;BME280;34928;37.302;-121.984;2023-02-20T10:35:25;101368.0;;;24.65;19.16
48644;BME280;34928;37.302;-121.984;2023-02-20T10:45:40;101356.0;;;24.45;19.21
48644;BME280;34928;37.302;-121.984;2023-02-20T10:55:54;101361.0;;;24.41;19.08
48644;BME280;34928;37.302;-121.984;2023-02-20T11:06:00;101342.0;;;24.35;19.04
48644;BME280;34928;37.302;-121.984;2023-02-20T11:16:19;101340.0;;;23.97;19.02
48644;BME280;34928;37.302;-121.984;2023-02-20T11:26:29;101349.0;;;24.09;19.00
48644;BME280;34928;37.302;-121.984;2023-02-20T11:36:37;101371.0;;;23.95;18.98
48644;BME280;34928;37.302;-121.984;2023-02-20T11:46:43;101356.0;;;23.80;18.98
48644;BME280;34928;37.302;-121.984;2023-02-20T11:56:59;101381.0;;;23.88;18.98
48644;BME280;34928;37.302;-121.984;2023-02-20T12:07:17;101380.0;;;23.82;18.95
48644;BME280;34928;37.302;-121.984;2023-02-20T12:17:29;101391.0;;;23.91;18.97
48644;BME280;34928;37.302;-121.984;2023-02-20T12:27:53;101411.0;;;23.76;18.99
48644;BME280;34928;37.302;-121.984;2023-02-20T12:38:17;101411.0;;;23.69;18.97
48644;BME280;34928;37.302;-121.984;2023-02-20T12:48:34;101432.0;;;23.53;18.99
48644;BME280;34928;37.302;-121.984;2023-02-20T12:58:47;101404.0;;;23.45;18.97
48644;BME280;34928;37.302;-121.984;2023-02-20T13:09:00;101372.0;;;23.38;18.93
48644;BME280;34928;37.302;-121.984;2023-02-20T13:19:16;101353.0;;;22.75;18.58
48644;BME280;34928;37.302;-121.984;2023-02-20T13:29:24;101369.0;;;23.75;18.60
48644;BME280;34928;37.302;-121.984;2023-02-20T13:39:36;101383.0;;;23.96;18.38
48644;BME280;34928;37.302;-121.984;2023-02-20T13:49:55;101361.0;;;24.25;18.27
48644;BME280;34928;37.302;-121.984;2023-02-20T13:59:58;101364.0;;;24.77;18.15
48644;BME280;34928;37.302;-121.984;2023-02-20T14:10:14;101380.0;;;25.23;17.97
48644;BME280;34928;37.302;-121.984;2023-02-20T14:20:20;101410.0;;;25.09;17.94
48644;BME280;34928;37.302;-121.984;2023-02-20T14:30:27;101400.0;;;25.53;17.71
48644;BME280;34928;37.302;-121.984;2023-02-20T14:40:36;101368.0;;;25.85;17.64
48644;BME280;34928;37.302;-121.984;2023-02-20T14:50:42;101356.0;;;26.14;17.58
48644;BME280;34928;37.302;-121.984;2023-02-20T15:00:47;101362.0;;;25.58;17.70
48644;BME280;34928;37.302;-121.984;2023-02-20T15:10:54;101374.0;;;25.97;17.47
48644;BME280;34928;37.302;-121.984;2023-02-20T15:20:57;101399.0;;;25.66;17.70
48644;BME280;34928;37.302;-121.984;2023-02-20T15:31:20;101422.0;;;25.87;17.51
48644;BME280;34928;37.302;-121.984;2023-02-20T15:41:27;101445.0;;;26.04;17.79
48644;BME280;34928;37.302;-121.984;2023-02-20T15:51:35;101485.0;;;26.37;17.31
48644;BME280;34928;37.302;-121.984;2023-02-20T16:01:42;101524.0;;;26.06;17.69
48644;BME280;34928;37.302;-121.984;2023-02-20T16:11:47;101513.0;;;25.84;17.66
48644;BME280;34928;37.302;-121.984;2023-02-20T16:21:52;101524.0;;;25.82;17.88
48644;BME280;34928;37.302;-121.984;2023-02-20T16:42:28;101556.0;;;25.70;18.27
48644;BME280;34928;37.302;-121.984;2023-02-20T16:52:34;101568.0;;;25.45;18.72
48644;BME280;34928;37.302;-121.984;2023-02-20T17:02:37;101556.0;;;25.98;19.15
48644;BME280;34928;37.302;-121.984;2023-02-20T17:12:43;101543.0;;;26.11;18.94
48644;BME280;34928;37.302;-121.984;2023-02-20T17:22:48;101544.0;;;26.13;18.95
48644;BME280;34928;37.302;-121.984;2023-02-20T17:32:53;101561.0;;;25.96;19.13
48644;BME280;34928;37.302;-121.984;2023-02-20T17:42:57;101555.0;;;25.98;19.22
48644;BME280;34928;37.302;-121.984;2023-02-20T17:53:02;101542.0;;;26.15;19.02
48644;BME280;34928;37.302;-121.984;2023-02-20T18:03:07;101526.0;;;26.13;18.94
48644;BME280;34928;37.302;-121.984;2023-02-20T18:13:12;101523.0;;;26.11;19.01
48644;BME280;34928;37.302;-121.984;2023-02-20T18:23:17;101494.0;;;26.05;19.16
48644;BME280;34928;37.302;-121.984;2023-02-20T18:33:22;101498.0;;;26.00;19.28
48644;BME280;34928;37.302;-121.984;2023-02-20T18:43:28;101505.0;;;25.88;19.27
48644;BME280;34928;37.302;-121.984;2023-02-20T18:53:32;101502.0;;;26.16;19.33
48644;BME280;34928;37.302;-121.984;2023-02-20T19:03:37;101504.0;;;25.91;19.30
48644;BME280;34928;37.302;-121.984;2023-02-20T19:13:42;101487.0;;;26.27;19.27
48644;BME280;34928;37.302;-121.984;2023-02-20T19:23:48;101476.0;;;26.34;19.17
48644;BME280;34928;37.302;-121.984;2023-02-20T19:33:52;101454.0;;;26.31;18.91
48644;BME280;34928;37.302;-121.984;2023-02-20T19:43:57;101426.0;;;26.01;19.29
48644;BME280;34928;37.302;-121.984;2023-02-20T19:54:02;101416.0;;;26.05;19.28
48644;BME280;34928;37.302;-121.984;2023-02-20T20:04:07;101419.0;;;26.15;19.29
48644;BME280;34928;37.302;-121.984;2023-02-20T20:14:12;101409.0;;;26.40;19.21
48644;BME280;34928;37.302;-121.984;2023-02-20T20:24:17;101379.0;;;26.54;19.24
48644;BME280;34928;37.302;-121.984;2023-02-20T20:34:22;101345.0;;;26.42;19.53
48644;BME280;34928;37.302;-121.984;2023-02-20T20:44:27;101320.0;;;26.84;19.62
48644;BME280;34928;37.302;-121.984;2023-02-20T20:54:32;101294.0;;;26.92;19.84
48644;BME280;34928;37.302;-121.984;2023-02-20T21:04:37;101283.0;;;26.54;19.92
48644;BME280;34928;37.302;-121.984;2023-02-20T21:14:43;101285.0;;;26.79;20.15
48644;BME280;34928;37.302;-121.984;2023-02-20T21:24:47;101284.0;;;27.07;20.04
48644;BME280;34928;37.302;-121.984;2023-02-20T21:34:53;101272.0;;;26.87;19.67
48644;BME280;34928;37.302;-121.984;2023-02-20T21:44:57;101276.0;;;26.60;17.24
48644;BME280;34928;37.302;-121.984;2023-02-20T21:55:05;101274.0;;;26.39;17.65
48644;BME280;34928;37.302;-121.984;2023-02-20T22:05:13;101280.0;;;26.66;17.74
48644;BME280;34928;37.302;-121.984;2023-02-20T22:15:17;101280.0;;;27.03;18.83
48644;BME280;34928;37.302;-121.984;2023-02-20T22:25:23;101261.0;;;26.83;18.89
48644;BME280;34928;37.302;-121.984;2023-02-20T22:35:27;101232.0;;;26.79;19.14
48644;BME280;34928;37.302;-121.984;2023-02-20T22:45:32;101214.0;;;26.94;19.42
48644;BME280;34928;37.302;-121.984;2023-02-20T22:55:37;101202.0;;;26.88;19.34
48644;BME280;34928;37.302;-121.984;2023-02-20T23:05:42;101201.0;;;27.20;18.84
48644;BME280;34928;37.302;-121.984;2023-02-20T23:15:48;101175.0;;;27.12;19.28
48644;BME280;34928;37.302;-121.984;2023-02-20T23:25:53;101155.0;;;27.22;19.33
48644;BME280;34928;37.302;-121.984;2023-02-20T23:35:57;101162.0;;;27.22;19.53
48644;BME280;34928;37.302;-121.984;2023-02-20T23:46:03;101134.0;;;27.64;19.34
48644;BME280;34928;37.302;-121.984;2023-02-20T23:56:07;101134.0;;;27.20;19.53
